Historyczne dane pomiarowe

Dodano dane terminowe – wersja testowa.

Dane z okresu 1951-2019

Wersja bazy: 1.34 [2019-03-16, lista zmian], aktualizacja planowana na 2019-04-15

Dane meteo z obszaru Polski uzyskane na podstawie danych udostępnionych przez Instytut Meteorologii i Gospodarki Wodnej – Państwowy Instytut Badawczy.

 

Wybierz Datę:    

       

TemperaturaWilgotnośćWiatrCiśnienieOpadyŚniegCzas trwania zjawisk
 Stacja t tx tn tng RH VA  wxwx mslp ppp RRR   cm mm wxwxwxwxwxwxwx
1983-08-14 13.4 17.4 8.5 5.1 70.5- 5.3 3.7---- 0.0------------
1983-08-13 15.7 20.4 12.0 12.6 72.5- 8.0 4.7---- 3.5------------
1983-08-12 20.6 25.6 14.8 12.2 63.8- 2.7 2.0---- 0.0------------
1983-08-11 19.2 24.5 14.0 12.9 67.5- 3.3 4.0---- 0.0------------
1983-08-10 19.9 25.1 14.5 13.5 66.0- 3.0 2.0---- 0.0------------
1983-08-09 18.3 24.1 15.0 15.4 83.8- 6.0 2.0---- 0.4------------
1983-08-08 16.2 19.2 14.0 14.2 93.3- 8.0 4.3---- 2.0------------
1983-08-07 14.2 15.5 12.7 11.9 87.5- 8.0 3.7---- 0.9------------
1983-08-06 13.8 17.0 10.4 8.7 76.3- 8.0 2.7---- 0.0------------
1983-08-05 12.0 15.2 7.7 5.7 79.3- 6.7 4.0---- 0.0------------
1983-08-04 11.5 13.4 10.6 10.7 83.0- 8.0 3.0---- 1.0------------
1983-08-03 15.2 18.7 12.7 13.2 92.5- 8.0 4.7---- 4.1------------
1983-08-02 20.3 25.4 17.5 14.2 75.8- 6.7 2.0---- 11.5------------
1983-08-01 21.6 30.8 10.9 6.9 51.5- 0.0 6.0---- 0.0------------
1983-07-31 19.3 26.1 8.9 8.2 52.0- 0.0 1.3---- 0.0------------
1983-07-30 18.8 23.8 15.7 15.2 66.3- 6.3 3.7---- 0.0------------
1983-07-29 19.9 23.9 16.0 13.5 61.8- 5.7 2.7---- 0.7------------
1983-07-28 23.9 29.6 21.2 20.6 56.5- 5.0 2.0---- 0.0------------
1983-07-27 25.0 34.2 14.4 13.1 53.3- 0.3 0.0---- 0.0------------
1983-07-26 21.2 27.8 12.9 9.2 53.3- 0.0 1.3---- 0.0------------
1983-07-25 15.8 22.4 11.9 10.8 76.5- 4.7 2.0---- 0.0------------
1983-07-24 18.6 25.1 11.1 7.7 67.3- 3.7 3.0---- 0.5------------
1983-07-23 18.1 23.3 14.0 13.2 69.3- 4.0 2.7---- 0.0------------
1983-07-22 12.9 16.4 7.9 5.1 75.8- 8.0 2.3---- 0.0------------
1983-07-21 12.0 16.2 9.9 8.7 66.5- 5.7 5.3---- 0.0------------
1983-07-20 15.6 24.7 12.1 12.7 84.8- 5.7 2.3---- 0.3------------
1983-07-19 23.9 28.0 17.4 15.0 61.5- 2.0 2.7---- 8.0------------
1983-07-18 24.4 31.0 16.0 14.9 61.0- 0.3 2.0---- 0.5------------
1983-07-17 21.6 27.3 14.4 11.7 66.0- 1.7 1.7---- 0.0------------
1983-07-16 20.2 27.6 14.0 12.6 75.3- 4.7 2.3---- 0.0------------
1983-07-15 20.1 24.3 15.0 13.9 72.0- 2.3 4.3---- 0.0------------
1983-07-14 17.3 20.4 15.2 15.2 85.0- 5.3 4.0---- 0.0------------
1983-07-13 20.4 25.4 16.3 16.1 67.8- 5.7 5.3---- 25.5------------
1983-07-12 20.0 26.3 15.0 15.2 72.8- 7.3 6.0---- 4.3------------
1983-07-11 19.2 26.2 15.0 15.8 76.5- 4.7 3.0---- 27.6------------
1983-07-10 22.6 28.3 15.0 13.0 55.5- 3.3 1.7---- 0.0------------
1983-07-09 21.5 27.3 12.7 11.9 51.8- 1.7 2.0---- 0.0------------
1983-07-08 21.4 26.9 13.7 13.6 51.8- 0.0 2.0---- 0.0------------
1983-07-07 22.6 28.7 15.0 13.7 64.0- 1.3 1.7---- 0.0------------
1983-07-06 21.7 27.6 13.2 10.4 65.8- 0.3 0.0---- 0.0------------
1983-07-05 20.0 25.5 13.5 13.4 66.0- 0.0 2.7---- 0.0------------
1983-07-04 19.8 25.7 14.0 13.2 63.0- 2.3 2.0---- 0.0------------
1983-07-03 19.0 23.0 12.4 10.4 67.8- 0.0 1.3---- 0.0------------
1983-07-02 17.3 21.4 14.8 14.2 75.8- 7.0 3.3---- 0.0------------
1983-07-01 17.8 24.9 10.1 9.5 74.5- 5.3 2.3---- 1.0------------
1983-06-30 16.7 22.2 10.1 8.5 74.8- 1.0 2.3---- 0.0------------
1983-06-29 13.3 18.5 7.2 4.1 68.8- 2.7 2.0---- 0.0------------
1983-06-28 14.7 19.5 13.1 13.2 86.0- 8.0 2.7---- 0.1------------
1983-06-27 20.4 26.7 15.4 13.2 73.3- 5.7 2.7---- 18.5------------
1983-06-26 18.8 23.9 15.0 13.5 84.8- 8.0 3.3---- 0.0------------
1983-06-25 20.9 26.5 14.0 12.7 63.3- 1.7 5.7---- 7.3------------
1983-06-24 17.8 25.1 7.8 6.5 65.0- 0.7 2.0---- 0.0------------
1983-06-23 15.1 21.0 7.0 4.3 53.8- 1.0 1.7---- 0.0------------
1983-06-22 16.2 22.5 11.4 10.0 63.8- 6.3 3.0---- 0.0------------
1983-06-21 20.2 24.4 14.0 13.3 66.5- 1.3 2.3---- 0.0------------
1983-06-20 16.0 20.0 13.7 13.8 88.5- 8.0 3.0---- 0.0------------
1983-06-19 12.6 14.3 11.4 11.2 94.5- 8.0 4.7---- 5.1------------
1983-06-18 11.2 14.4 8.7 7.7 80.0- 8.0 4.7---- 1.1------------
1983-06-17 11.3 14.4 8.9 8.9 73.5- 8.0 3.3---- 0.0------------
1983-06-16 10.7 13.3 8.4 8.0 80.3- 8.0 7.3---- 0.6------------
260.6 ms

 

Źródłem pochodzenia danych jest Instytut Meteorologii i Gospodarki Wodnej – Państwowy Instytut Badawczy. Dane Instytutu Meteorologii i Gospodarki Wodnej – Państwowego Instytutu Badawczego zostały przetworzone.

Dane źródłowe można odnaleźć na stronie https://dane.imgw.pl